sensor_id;sensor_type;location;lat;lon;timestamp;pressure;altitude;pressure_sealevel;temperature;humidity
6528;BME280;64597;42.664;23.256;2023-06-14T00:01:49;94289.81;;;17.55;76.13
6528;BME280;64597;42.664;23.256;2023-06-14T00:04:14;94301.72;;;17.62;76.20
6528;BME280;64597;42.664;23.256;2023-06-14T00:06:44;94301.44;;;17.64;76.09
6528;BME280;64597;42.664;23.256;2023-06-14T00:09:11;94293.72;;;17.62;75.90
6528;BME280;64597;42.664;23.256;2023-06-14T00:11:39;94269.59;;;17.49;75.91
6528;BME280;64597;42.664;23.256;2023-06-14T00:14:05;94293.19;;;17.60;75.99
6528;BME280;64597;42.664;23.256;2023-06-14T00:16:30;94290.53;;;17.60;76.04
6528;BME280;64597;42.664;23.256;2023-06-14T00:18:58;94295.59;;;17.62;75.98
6528;BME280;64597;42.664;23.256;2023-06-14T00:21:23;94283.06;;;17.62;75.54
6528;BME280;64597;42.664;23.256;2023-06-14T00:23:49;94285.00;;;17.57;75.03
6528;BME280;64597;42.664;23.256;2023-06-14T00:26:14;94280.50;;;17.52;75.45
6528;BME280;64597;42.664;23.256;2023-06-14T00:28:40;94278.63;;;17.53;75.72
6528;BME280;64597;42.664;23.256;2023-06-14T00:31:06;94286.00;;;17.61;75.42
6528;BME280;64597;42.664;23.256;2023-06-14T00:33:31;94287.59;;;17.62;75.14
6528;BME280;64597;42.664;23.256;2023-06-14T00:35:57;94288.47;;;17.57;74.85
6528;BME280;64597;42.664;23.256;2023-06-14T00:38:22;94287.72;;;17.52;75.56
6528;BME280;64597;42.664;23.256;2023-06-14T00:40:47;94286.69;;;17.48;75.75
6528;BME280;64597;42.664;23.256;2023-06-14T00:43:13;94270.94;;;17.46;75.98
6528;BME280;64597;42.664;23.256;2023-06-14T00:45:38;94273.34;;;17.48;75.92
6528;BME280;64597;42.664;23.256;2023-06-14T00:48:05;94266.66;;;17.50;76.15
6528;BME280;64597;42.664;23.256;2023-06-14T00:50:32;94268.00;;;17.48;76.03
6528;BME280;64597;42.664;23.256;2023-06-14T00:52:59;94273.34;;;17.48;76.20
6528;BME280;64597;42.664;23.256;2023-06-14T00:55:26;94265.91;;;17.45;76.60
6528;BME280;64597;42.664;23.256;2023-06-14T00:57:51;94271.22;;;17.50;76.80
6528;BME280;64597;42.664;23.256;2023-06-14T01:00:17;94270.94;;;17.51;76.54
6528;BME280;64597;42.664;23.256;2023-06-14T01:02:43;94245.44;;;17.40;76.52
6528;BME280;64597;42.664;23.256;2023-06-14T01:05:09;94269.84;;;17.52;76.51
6528;BME280;64597;42.664;23.256;2023-06-14T01:15:22;94222.97;;;17.22;76.42
6528;BME280;64597;42.664;23.256;2023-06-14T01:17:51;94275.97;;;17.53;76.36
6528;BME280;64597;42.664;23.256;2023-06-14T01:20:22;94260.06;;;17.43;76.58
6528;BME280;64597;42.664;23.256;2023-06-14T01:22:51;94258.72;;;17.45;76.26
6528;BME280;64597;42.664;23.256;2023-06-14T01:25:19;94261.66;;;17.44;76.28
6528;BME280;64597;42.664;23.256;2023-06-14T01:27:59;94265.88;;;17.50;76.41
6528;BME280;64597;42.664;23.256;2023-06-14T01:30:26;94258.72;;;17.45;76.65
6528;BME280;64597;42.664;23.256;2023-06-14T01:32:54;94263.47;;;17.48;76.78
6528;BME280;64597;42.664;23.256;2023-06-14T01:35:21;94251.56;;;17.41;76.71
6528;BME280;64597;42.664;23.256;2023-06-14T01:37:48;94220.81;;;17.24;76.62
6528;BME280;64597;42.664;23.256;2023-06-14T01:40:15;94265.09;;;17.49;76.83
6528;BME280;64597;42.664;23.256;2023-06-14T01:42:41;94265.88;;;17.50;76.94
6528;BME280;64597;42.664;23.256;2023-06-14T01:45:08;94275.47;;;17.51;76.83
6528;BME280;64597;42.664;23.256;2023-06-14T01:47:35;94271.22;;;17.50;76.93
6528;BME280;64597;42.664;23.256;2023-06-14T01:50:04;94266.13;;;17.48;76.97
6528;BME280;64597;42.664;23.256;2023-06-14T01:52:30;94269.28;;;17.55;76.93
6528;BME280;64597;42.664;23.256;2023-06-14T01:54:56;94265.00;;;17.54;76.98
6528;BME280;64597;42.664;23.256;2023-06-14T01:57:22;94272.84;;;17.46;76.87
6528;BME280;64597;42.664;23.256;2023-06-14T01:59:48;94281.88;;;17.50;77.00
6528;BME280;64597;42.664;23.256;2023-06-14T02:02:14;94274.91;;;17.49;77.01
6528;BME280;64597;42.664;23.256;2023-06-14T02:04:40;94286.69;;;17.48;76.98
6528;BME280;64597;42.664;23.256;2023-06-14T02:07:05;94283.75;;;17.49;76.84
6528;BME280;64597;42.664;23.256;2023-06-14T02:09:31;94271.31;;;17.40;76.81
6528;BME280;64597;42.664;23.256;2023-06-14T02:11:56;94289.38;;;17.43;77.01
6528;BME280;64597;42.664;23.256;2023-06-14T02:14:22;94281.97;;;17.40;77.23
6528;BME280;64597;42.664;23.256;2023-06-14T02:16:48;94296.25;;;17.49;77.31
6528;BME280;64597;42.664;23.256;2023-06-14T02:19:18;94295.44;;;17.48;77.17
6528;BME280;64597;42.664;23.256;2023-06-14T02:21:44;94306.91;;;17.54;76.82
6528;BME280;64597;42.664;23.256;2023-06-14T02:24:10;94303.22;;;17.50;76.44
6528;BME280;64597;42.664;23.256;2023-06-14T02:26:36;94281.50;;;17.33;76.60
6528;BME280;64597;42.664;23.256;2023-06-14T02:29:03;94303.22;;;17.45;76.73
6528;BME280;64597;42.664;23.256;2023-06-14T02:31:30;94298.97;;;17.44;76.86
6528;BME280;64597;42.664;23.256;2023-06-14T02:33:56;94295.28;;;17.40;76.73
6528;BME280;64597;42.664;23.256;2023-06-14T02:36:21;94301.34;;;17.45;76.91
6528;BME280;64597;42.664;23.256;2023-06-14T02:38:47;94305.34;;;17.48;76.59
6528;BME280;64597;42.664;23.256;2023-06-14T02:41:12;94301.88;;;17.47;76.22
6528;BME280;64597;42.664;23.256;2023-06-14T02:43:38;94304.31;;;17.44;76.23
6528;BME280;64597;42.664;23.256;2023-06-14T02:46:04;94297.16;;;17.39;76.47
6528;BME280;64597;42.664;23.256;2023-06-14T02:48:30;94294.19;;;17.41;76.67
6528;BME280;64597;42.664;23.256;2023-06-14T02:50:55;94293.66;;;17.44;76.23
6528;BME280;64597;42.664;23.256;2023-06-14T02:53:22;94288.66;;;17.37;76.36
6528;BME280;64597;42.664;23.256;2023-06-14T02:55:47;94293.19;;;17.37;76.30
6528;BME280;64597;42.664;23.256;2023-06-14T02:58:13;94292.16;;;17.33;76.73
6528;BME280;64597;42.664;23.256;2023-06-14T03:00:39;94301.69;;;17.39;76.56
6528;BME280;64597;42.664;23.256;2023-06-14T03:03:06;94308.06;;;17.38;76.60
6528;BME280;64597;42.664;23.256;2023-06-14T03:05:41;94305.41;;;17.38;76.54
6528;BME280;64597;42.664;23.256;2023-06-14T03:08:12;94300.88;;;17.38;76.46
6528;BME280;64597;42.664;23.256;2023-06-14T03:10:42;94301.47;;;17.35;76.40
6528;BME280;64597;42.664;23.256;2023-06-14T03:13:09;94305.41;;;17.38;76.23
6528;BME280;64597;42.664;23.256;2023-06-14T03:15:36;94304.97;;;17.30;75.75
6528;BME280;64597;42.664;23.256;2023-06-14T03:18:01;94312.91;;;17.36;75.90
6528;BME280;64597;42.664;23.256;2023-06-14T03:20:26;94298.94;;;17.20;75.75
6528;BME280;64597;42.664;23.256;2023-06-14T03:22:54;94299.75;;;17.20;76.07
6528;BME280;64597;42.664;23.256;2023-06-14T03:25:19;94330.25;;;17.33;76.26
6528;BME280;64597;42.664;23.256;2023-06-14T03:27:47;94308.75;;;17.24;76.07
6528;BME280;64597;42.664;23.256;2023-06-14T03:30:12;94324.66;;;17.35;76.17
6528;BME280;64597;42.664;23.256;2023-06-14T03:32:39;94312.97;;;17.30;76.02
6528;BME280;64597;42.664;23.256;2023-06-14T03:35:05;94325.16;;;17.37;75.97
6528;BME280;64597;42.664;23.256;2023-06-14T03:37:30;94325.97;;;17.37;76.16
6528;BME280;64597;42.664;23.256;2023-06-14T03:39:56;94322.78;;;17.35;76.13
6528;BME280;64597;42.664;23.256;2023-06-14T03:42:21;94336.63;;;17.37;76.21
6528;BME280;64597;42.664;23.256;2023-06-14T03:44:47;94326.22;;;17.36;76.46
6528;BME280;64597;42.664;23.256;2023-06-14T03:47:12;94328.03;;;17.40;76.41
6528;BME280;64597;42.664;23.256;2023-06-14T03:49:38;94324.34;;;17.36;76.43
6528;BME280;64597;42.664;23.256;2023-06-14T03:52:03;94326.72;;;17.38;76.77
6528;BME280;64597;42.664;23.256;2023-06-14T03:54:29;94325.38;;;17.40;76.65
6528;BME280;64597;42.664;23.256;2023-06-14T03:56:57;94328.31;;;17.44;76.55
6528;BME280;64597;42.664;23.256;2023-06-14T03:59:23;94331.50;;;17.41;76.50
6528;BME280;64597;42.664;23.256;2023-06-14T04:01:48;94331.22;;;17.42;76.70
6528;BME280;64597;42.664;23.256;2023-06-14T04:04:14;94325.16;;;17.37;76.53
6528;BME280;64597;42.664;23.256;2023-06-14T04:06:41;94331.19;;;17.47;76.75
6528;BME280;64597;42.664;23.256;2023-06-14T04:09:08;94329.13;;;17.39;76.64
6528;BME280;64597;42.664;23.256;2023-06-14T04:11:34;94322.38;;;17.47;76.67
6528;BME280;64597;42.664;23.256;2023-06-14T04:13:59;94329.56;;;17.51;76.54
6528;BME280;64597;42.664;23.256;2023-06-14T04:16:25;94314.91;;;17.49;75.97
6528;BME280;64597;42.664;23.256;2023-06-14T04:18:51;94325.78;;;17.57;75.75
6528;BME280;64597;42.664;23.256;2023-06-14T04:21:18;94323.84;;;17.63;76.03
6528;BME280;64597;42.664;23.256;2023-06-14T04:23:43;94324.88;;;17.67;75.78
6528;BME280;64597;42.664;23.256;2023-06-14T04:26:09;94327.53;;;17.67;75.08
6528;BME280;64597;42.664;23.256;2023-06-14T04:28:35;94328.50;;;17.76;74.84
6528;BME280;64597;42.664;23.256;2023-06-14T04:31:06;94333.84;;;17.76;75.03
6528;BME280;64597;42.664;23.256;2023-06-14T04:33:36;94333.84;;;17.76;75.10
6528;BME280;64597;42.664;23.256;2023-06-14T04:36:11;94338.84;;;17.82;75.00
6528;BME280;64597;42.664;23.256;2023-06-14T04:38:39;94333.22;;;17.84;74.08
6528;BME280;64597;42.664;23.256;2023-06-14T04:41:04;94332.91;;;17.85;74.02
6528;BME280;64597;42.664;23.256;2023-06-14T04:43:31;94327.75;;;17.94;74.00
6528;BME280;64597;42.664;23.256;2023-06-14T04:46:06;94331.94;;;18.00;73.49
6528;BME280;64597;42.664;23.256;2023-06-14T04:48:36;94331.31;;;18.08;73.14
6528;BME280;64597;42.664;23.256;2023-06-14T04:51:03;94337.97;;;18.10;73.03
6528;BME280;64597;42.664;23.256;2023-06-14T04:53:29;94338.69;;;18.16;72.77
6528;BME280;64597;42.664;23.256;2023-06-14T04:55:55;94339.16;;;18.23;71.83
6528;BME280;64597;42.664;23.256;2023-06-14T04:58:20;94343.88;;;18.26;71.34
6528;BME280;64597;42.664;23.256;2023-06-14T05:00:46;94330.53;;;18.26;71.05
6528;BME280;64597;42.664;23.256;2023-06-14T05:03:11;94343.41;;;18.43;70.87
6528;BME280;64597;42.664;23.256;2023-06-14T05:05:39;94339.78;;;18.34;69.95
6528;BME280;64597;42.664;23.256;2023-06-14T05:08:06;94344.34;;;18.33;70.17
6528;BME280;64597;42.664;23.256;2023-06-14T05:10:31;94344.25;;;18.43;70.43
6528;BME280;64597;42.664;23.256;2023-06-14T05:12:56;94327.22;;;18.34;70.64
6528;BME280;64597;42.664;23.256;2023-06-14T05:15:23;94345.31;;;18.61;70.58
6528;BME280;64597;42.664;23.256;2023-06-14T05:17:51;94355.06;;;18.70;70.60
6528;BME280;64597;42.664;23.256;2023-06-14T05:20:21;94360.69;;;18.87;70.22
6528;BME280;64597;42.664;23.256;2023-06-14T05:22:48;94345.44;;;18.88;70.62
6528;BME280;64597;42.664;23.256;2023-06-14T05:25:15;94361.50;;;19.52;79.54
6528;BME280;64597;42.664;23.256;2023-06-14T05:27:41;94364.25;;;20.47;78.46
6528;BME280;64597;42.664;23.256;2023-06-14T05:30:07;94361.03;;;21.08;70.24
6528;BME280;64597;42.664;23.256;2023-06-14T05:32:33;94366.38;;;21.53;67.49
6528;BME280;64597;42.664;23.256;2023-06-14T05:34:59;94364.63;;;21.79;65.86
6528;BME280;64597;42.664;23.256;2023-06-14T05:37:24;94356.72;;;22.04;65.19
6528;BME280;64597;42.664;23.256;2023-06-14T05:39:50;94347.94;;;22.21;63.91
6528;BME280;64597;42.664;23.256;2023-06-14T05:42:15;94350.81;;;22.42;62.16
6528;BME280;64597;42.664;23.256;2023-06-14T05:44:41;94368.78;;;22.72;61.40
6528;BME280;64597;42.664;23.256;2023-06-14T05:47:06;94371.63;;;22.84;60.05
6528;BME280;64597;42.664;23.256;2023-06-14T05:49:32;94372.44;;;22.93;58.57
6528;BME280;64597;42.664;23.256;2023-06-14T05:51:57;94305.47;;;22.49;58.96
6528;BME280;64597;42.664;23.256;2023-06-14T05:54:22;94375.91;;;23.02;58.09
6528;BME280;64597;42.664;23.256;2023-06-14T05:56:48;94373.22;;;23.11;58.19
6528;BME280;64597;42.664;23.256;2023-06-14T05:59:13;94379.88;;;23.05;58.18
6528;BME280;64597;42.664;23.256;2023-06-14T06:01:39;94376.38;;;23.04;58.06
6528;BME280;64597;42.664;23.256;2023-06-14T06:04:05;94380.53;;;23.02;58.00
6528;BME280;64597;42.664;23.256;2023-06-14T06:06:31;94386.81;;;23.14;58.91
6528;BME280;64597;42.664;23.256;2023-06-14T06:08:57;94380.69;;;23.22;58.16
6528;BME280;64597;42.664;23.256;2023-06-14T06:11:23;94365.16;;;23.19;57.70
6528;BME280;64597;42.664;23.256;2023-06-14T06:13:48;94379.25;;;23.33;57.46
6528;BME280;64597;42.664;23.256;2023-06-14T06:16:14;94388.28;;;23.37;57.10
6528;BME280;64597;42.664;23.256;2023-06-14T06:18:40;94392.22;;;23.31;57.22
6528;BME280;64597;42.664;23.256;2023-06-14T06:21:06;94393.16;;;23.27;56.92
6528;BME280;64597;42.664;23.256;2023-06-14T06:23:31;94397.25;;;22.81;56.69
6528;BME280;64597;42.664;23.256;2023-06-14T06:25:57;94383.69;;;22.30;57.94
6528;BME280;64597;42.664;23.256;2023-06-14T06:28:23;94385.91;;;21.97;58.86
6528;BME280;64597;42.664;23.256;2023-06-14T06:30:48;94400.81;;;21.81;59.59
6528;BME280;64597;42.664;23.256;2023-06-14T06:33:14;94404.25;;;21.51;60.68
6528;BME280;64597;42.664;23.256;2023-06-14T06:35:39;94380.84;;;21.21;61.49
6528;BME280;64597;42.664;23.256;2023-06-14T06:38:05;94393.75;;;21.19;61.28
6528;BME280;64597;42.664;23.256;2023-06-14T06:40:30;94382.88;;;21.02;61.97
6528;BME280;64597;42.664;23.256;2023-06-14T06:42:56;94394.78;;;20.96;62.83
6528;BME280;64597;42.664;23.256;2023-06-14T06:45:21;94394.78;;;20.96;63.45
6528;BME280;64597;42.664;23.256;2023-06-14T06:47:51;94393.00;;;20.91;62.86
6528;BME280;64597;42.664;23.256;2023-06-14T06:50:17;94396.59;;;21.36;61.95
6528;BME280;64597;42.664;23.256;2023-06-14T06:52:43;94407.31;;;21.36;62.66
6528;BME280;64597;42.664;23.256;2023-06-14T06:55:10;94403.03;;;21.35;62.18
6528;BME280;64597;42.664;23.256;2023-06-14T06:57:36;94406.75;;;21.48;62.16
6528;BME280;64597;42.664;23.256;2023-06-14T07:00:02;94399.34;;;21.75;61.90
6528;BME280;64597;42.664;23.256;2023-06-14T07:02:31;94380.59;;;22.14;60.28
6528;BME280;64597;42.664;23.256;2023-06-14T07:04:56;94394.53;;;22.64;60.05
6528;BME280;64597;42.664;23.256;2023-06-14T07:07:21;94380.56;;;22.54;59.88
6528;BME280;64597;42.664;23.256;2023-06-14T07:09:47;94401.25;;;22.45;58.21
6528;BME280;64597;42.664;23.256;2023-06-14T07:12:12;94394.09;;;22.32;58.71
6528;BME280;64597;42.664;23.256;2023-06-14T07:14:38;94387.09;;;22.13;58.84
6528;BME280;64597;42.664;23.256;2023-06-14T07:17:03;94397.84;;;22.13;58.49
6528;BME280;64597;42.664;23.256;2023-06-14T07:19:29;94398.91;;;22.12;58.76
6528;BME280;64597;42.664;23.256;2023-06-14T07:21:55;94388.13;;;22.04;59.50
6528;BME280;64597;42.664;23.256;2023-06-14T07:24:21;94393.97;;;21.97;58.81
6528;BME280;64597;42.664;23.256;2023-06-14T07:26:46;94398.22;;;21.98;59.16
6528;BME280;64597;42.664;23.256;2023-06-14T07:29:13;94390.75;;;21.87;58.14
6528;BME280;64597;42.664;23.256;2023-06-14T07:31:39;94390.03;;;21.73;58.29
6528;BME280;64597;42.664;23.256;2023-06-14T07:34:04;94401.84;;;21.72;59.03
6528;BME280;64597;42.664;23.256;2023-06-14T07:36:30;94393.13;;;21.66;59.34
6528;BME280;64597;42.664;23.256;2023-06-14T07:38:55;94402.28;;;21.65;59.65
6528;BME280;64597;42.664;23.256;2023-06-14T07:41:21;94393.31;;;21.70;59.47
6528;BME280;64597;42.664;23.256;2023-06-14T07:43:47;94394.09;;;21.70;59.85
6528;BME280;64597;42.664;23.256;2023-06-14T07:46:12;94399.22;;;21.80;59.73
6528;BME280;64597;42.664;23.256;2023-06-14T07:48:38;94381.66;;;21.74;57.86
6528;BME280;64597;42.664;23.256;2023-06-14T07:51:03;94402.50;;;21.99;57.52
6528;BME280;64597;42.664;23.256;2023-06-14T07:53:29;94400.84;;;22.21;57.99
6528;BME280;64597;42.664;23.256;2023-06-14T07:55:56;94390.91;;;22.21;58.68
6528;BME280;64597;42.664;23.256;2023-06-14T07:58:21;94408.69;;;22.48;58.41
6528;BME280;64597;42.664;23.256;2023-06-14T08:00:47;94397.16;;;22.56;57.57
6528;BME280;64597;42.664;23.256;2023-06-14T08:03:12;94405.00;;;22.74;57.52
6528;BME280;64597;42.664;23.256;2023-06-14T08:05:38;94402.47;;;22.78;55.35
6528;BME280;64597;42.664;23.256;2023-06-14T08:08:03;94411.94;;;22.67;56.52
6528;BME280;64597;42.664;23.256;2023-06-14T08:10:29;94404.38;;;22.69;56.41
6528;BME280;64597;42.664;23.256;2023-06-14T08:12:54;94407.03;;;22.60;56.13
6528;BME280;64597;42.664;23.256;2023-06-14T08:15:20;94425.69;;;22.74;57.07
6528;BME280;64597;42.664;23.256;2023-06-14T08:17:45;94420.66;;;22.81;57.50
6528;BME280;64597;42.664;23.256;2023-06-14T08:20:12;94424.31;;;23.02;57.77
6528;BME280;64597;42.664;23.256;2023-06-14T08:22:38;94418.34;;;23.56;57.09
6528;BME280;64597;42.664;23.256;2023-06-14T08:25:06;94425.25;;;24.09;55.49
6528;BME280;64597;42.664;23.256;2023-06-14T08:27:32;94416.72;;;24.44;53.83
6528;BME280;64597;42.664;23.256;2023-06-14T08:29:57;94417.16;;;24.84;53.35
6528;BME280;64597;42.664;23.256;2023-06-14T08:32:23;94417.41;;;25.20;50.28
6528;BME280;64597;42.664;23.256;2023-06-14T08:34:48;94418.97;;;25.21;51.35
6528;BME280;64597;42.664;23.256;2023-06-14T08:37:13;94417.78;;;25.31;51.88
6528;BME280;64597;42.664;23.256;2023-06-14T08:39:39;94410.28;;;25.37;50.92
6528;BME280;64597;42.664;23.256;2023-06-14T08:42:05;94421.38;;;25.44;49.84
6528;BME280;64597;42.664;23.256;2023-06-14T08:44:33;94417.44;;;25.74;49.09
6528;BME280;64597;42.664;23.256;2023-06-14T08:47:00;94420.97;;;26.19;47.50
6528;BME280;64597;42.664;23.256;2023-06-14T08:49:26;94411.78;;;26.44;45.39
6528;BME280;64597;42.664;23.256;2023-06-14T08:51:59;94405.91;;;26.30;45.39
6528;BME280;64597;42.664;23.256;2023-06-14T08:54:27;94405.03;;;26.62;45.11
6528;BME280;64597;42.664;23.256;2023-06-14T08:56:56;94406.13;;;27.10;43.26
6528;BME280;64597;42.664;23.256;2023-06-14T08:59:28;94403.22;;;27.15;43.79
6528;BME280;64597;42.664;23.256;2023-06-14T09:01:54;94403.34;;;27.46;43.35
6528;BME280;64597;42.664;23.256;2023-06-14T09:04:23;94403.84;;;27.36;44.53
6528;BME280;64597;42.664;23.256;2023-06-14T09:06:50;94399.94;;;27.61;45.94
6528;BME280;64597;42.664;23.256;2023-06-14T09:09:20;94396.44;;;27.88;44.56
6528;BME280;64597;42.664;23.256;2023-06-14T09:11:46;94398.94;;;27.81;44.04
6528;BME280;64597;42.664;23.256;2023-06-14T09:14:12;94391.56;;;28.09;43.26
6528;BME280;64597;42.664;23.256;2023-06-14T09:16:37;94398.66;;;28.29;41.98
6528;BME280;64597;42.664;23.256;2023-06-14T09:19:03;94385.44;;;28.56;41.56
6528;BME280;64597;42.664;23.256;2023-06-14T09:21:33;94384.78;;;28.78;42.07
6528;BME280;64597;42.664;23.256;2023-06-14T09:23:59;94375.47;;;28.94;40.67
6528;BME280;64597;42.664;23.256;2023-06-14T09:26:25;94360.34;;;28.46;40.89
6528;BME280;64597;42.664;23.256;2023-06-14T09:28:52;94386.72;;;28.62;42.12
6528;BME280;64597;42.664;23.256;2023-06-14T09:31:19;94386.47;;;28.35;42.01
6528;BME280;64597;42.664;23.256;2023-06-14T09:33:47;94378.66;;;28.18;41.98
6528;BME280;64597;42.664;23.256;2023-06-14T09:36:18;94387.31;;;28.08;42.44
6528;BME280;64597;42.664;23.256;2023-06-14T09:39:01;94394.16;;;27.90;43.00
6528;BME280;64597;42.664;23.256;2023-06-14T09:41:40;94395.69;;;27.76;42.81
6528;BME280;64597;42.664;23.256;2023-06-14T09:44:08;94389.53;;;27.63;43.47
6528;BME280;64597;42.664;23.256;2023-06-14T09:46:35;94383.91;;;27.56;44.25
6528;BME280;64597;42.664;23.256;2023-06-14T09:49:02;94388.00;;;27.50;43.83
6528;BME280;64597;42.664;23.256;2023-06-14T09:51:28;94383.72;;;27.49;43.96
6528;BME280;64597;42.664;23.256;2023-06-14T09:54:02;94375.81;;;27.44;43.54
6528;BME280;64597;42.664;23.256;2023-06-14T09:56:31;94382.63;;;27.26;44.57
6528;BME280;64597;42.664;23.256;2023-06-14T09:58:59;94380.66;;;26.99;42.83
6528;BME280;64597;42.664;23.256;2023-06-14T10:01:26;94372.13;;;26.72;43.09
6528;BME280;64597;42.664;23.256;2023-06-14T10:04:04;94369.66;;;26.55;44.75
6528;BME280;64597;42.664;23.256;2023-06-14T10:06:31;94367.03;;;26.95;44.40
6528;BME280;64597;42.664;23.256;2023-06-14T10:08:58;94366.59;;;27.33;44.41
6528;BME280;64597;42.664;23.256;2023-06-14T10:11:27;94362.50;;;27.51;45.37
6528;BME280;64597;42.664;23.256;2023-06-14T10:13:58;94348.66;;;27.28;45.16
6528;BME280;64597;42.664;23.256;2023-06-14T10:16:34;94357.19;;;27.15;44.58
6528;BME280;64597;42.664;23.256;2023-06-14T10:19:18;94350.13;;;27.26;45.82
6528;BME280;64597;42.664;23.256;2023-06-14T10:21:46;94345.53;;;27.54;45.24
6528;BME280;64597;42.664;23.256;2023-06-14T10:24:16;94340.53;;;27.40;45.16
6528;BME280;64597;42.664;23.256;2023-06-14T10:26:51;94351.34;;;27.40;44.08
6528;BME280;64597;42.664;23.256;2023-06-14T10:29:17;94351.13;;;27.33;44.75
6528;BME280;64597;42.664;23.256;2023-06-14T10:31:44;94339.00;;;27.15;45.01
6528;BME280;64597;42.664;23.256;2023-06-14T10:34:11;94330.78;;;27.12;44.07
6528;BME280;64597;42.664;23.256;2023-06-14T10:36:41;94344.09;;;27.17;44.52
6528;BME280;64597;42.664;23.256;2023-06-14T10:39:13;94345.47;;;26.99;45.20
6528;BME280;64597;42.664;23.256;2023-06-14T10:41:41;94334.34;;;26.88;45.43
6528;BME280;64597;42.664;23.256;2023-06-14T10:46:40;94334.91;;;26.93;45.28
6528;BME280;64597;42.664;23.256;2023-06-14T10:49:06;94328.13;;;27.00;45.29
6528;BME280;64597;42.664;23.256;2023-06-14T10:51:40;94336.34;;;27.03;45.87
6528;BME280;64597;42.664;23.256;2023-06-14T10:54:13;94329.25;;;26.86;44.85
6528;BME280;64597;42.664;23.256;2023-06-14T10:56:46;94312.81;;;26.91;44.76
6528;BME280;64597;42.664;23.256;2023-06-14T10:59:12;94323.16;;;27.02;45.42
6528;BME280;64597;42.664;23.256;2023-06-14T11:01:43;94308.03;;;27.01;44.87
6528;BME280;64597;42.664;23.256;2023-06-14T11:11:05;94299.75;;;27.49;44.44
6528;BME280;64597;42.664;23.256;2023-06-14T11:13:31;94306.94;;;27.72;43.09
6528;BME280;64597;42.664;23.256;2023-06-14T11:15:56;94299.38;;;27.78;43.29
6528;BME280;64597;42.664;23.256;2023-06-14T11:18:23;94303.28;;;27.81;43.29
6528;BME280;64597;42.664;23.256;2023-06-14T11:20:53;94301.81;;;27.83;41.76
6528;BME280;64597;42.664;23.256;2023-06-14T11:23:19;94308.69;;;27.65;42.94
6528;BME280;64597;42.664;23.256;2023-06-14T11:25:50;94258.56;;;27.16;42.95
6528;BME280;64597;42.664;23.256;2023-06-14T11:28:16;94297.47;;;27.51;43.83
6528;BME280;64597;42.664;23.256;2023-06-14T11:30:41;94301.81;;;27.40;44.16
6528;BME280;64597;42.664;23.256;2023-06-14T11:33:09;94299.66;;;27.33;43.68
6528;BME280;64597;42.664;23.256;2023-06-14T11:38:59;94302.88;;;27.23;42.06
6528;BME280;64597;42.664;23.256;2023-06-14T11:41:25;94301.50;;;27.02;42.54
6528;BME280;64597;42.664;23.256;2023-06-14T11:43:53;94301.75;;;26.84;42.88
6528;BME280;64597;42.664;23.256;2023-06-14T11:46:19;94287.13;;;26.85;42.45
6528;BME280;64597;42.664;23.256;2023-06-14T11:48:49;94277.69;;;26.55;43.06
6528;BME280;64597;42.664;23.256;2023-06-14T11:51:14;94262.38;;;26.47;43.25
6528;BME280;64597;42.664;23.256;2023-06-14T11:53:42;94276.09;;;26.54;43.31
6528;BME280;64597;42.664;23.256;2023-06-14T11:56:08;94276.78;;;26.63;43.50
6528;BME280;64597;42.664;23.256;2023-06-14T11:58:34;94258.72;;;26.67;43.86
6528;BME280;64597;42.664;23.256;2023-06-14T12:00:59;94277.44;;;26.72;43.44
6528;BME280;64597;42.664;23.256;2023-06-14T12:03:26;94264.34;;;26.74;44.25
6528;BME280;64597;42.664;23.256;2023-06-14T12:06:06;94257.75;;;27.00;44.10
6528;BME280;64597;42.664;23.256;2023-06-14T12:08:36;94257.50;;;27.05;42.78
6528;BME280;64597;42.664;23.256;2023-06-14T12:11:12;94250.91;;;27.18;42.80
6528;BME280;64597;42.664;23.256;2023-06-14T12:13:42;94258.78;;;27.23;42.30
6528;BME280;64597;42.664;23.256;2023-06-14T12:16:11;94242.16;;;27.09;42.64
6528;BME280;64597;42.664;23.256;2023-06-14T12:18:39;94234.91;;;27.13;41.76
6528;BME280;64597;42.664;23.256;2023-06-14T12:21:08;94216.41;;;26.87;42.09
6528;BME280;64597;42.664;23.256;2023-06-14T12:23:46;94249.00;;;27.18;41.59
6528;BME280;64597;42.664;23.256;2023-06-14T12:26:13;94246.19;;;27.15;41.33
6528;BME280;64597;42.664;23.256;2023-06-14T12:28:40;94245.47;;;27.18;41.79
6528;BME280;64597;42.664;23.256;2023-06-14T12:31:08;94243.03;;;27.13;42.36
6528;BME280;64597;42.664;23.256;2023-06-14T12:33:33;94226.09;;;27.16;41.18
6528;BME280;64597;42.664;23.256;2023-06-14T12:35:59;94233.78;;;27.14;41.84
6528;BME280;64597;42.664;23.256;2023-06-14T12:38:25;94233.59;;;27.07;41.58
6528;BME280;64597;42.664;23.256;2023-06-14T12:40:50;94223.66;;;27.11;42.31
6528;BME280;64597;42.664;23.256;2023-06-14T12:43:16;94236.25;;;27.19;41.55
6528;BME280;64597;42.664;23.256;2023-06-14T12:45:41;94229.59;;;27.16;41.35
6528;BME280;64597;42.664;23.256;2023-06-14T12:48:07;94225.34;;;27.03;41.18
6528;BME280;64597;42.664;23.256;2023-06-14T12:50:34;94210.19;;;26.86;41.96
6528;BME280;64597;42.664;23.256;2023-06-14T12:53:01;94215.16;;;26.84;42.72
6528;BME280;64597;42.664;23.256;2023-06-14T12:55:27;94215.16;;;26.84;42.33
6528;BME280;64597;42.664;23.256;2023-06-14T12:57:52;94216.38;;;26.71;43.32
6528;BME280;64597;42.664;23.256;2023-06-14T13:00:18;94210.25;;;26.74;44.11
6528;BME280;64597;42.664;23.256;2023-06-14T13:02:45;94204.41;;;26.72;44.13
6528;BME280;64597;42.664;23.256;2023-06-14T13:05:11;94226.16;;;26.76;43.84
6528;BME280;64597;42.664;23.256;2023-06-14T13:07:46;94227.88;;;26.56;44.01
6528;BME280;64597;42.664;23.256;2023-06-14T13:10:12;94217.78;;;26.41;44.11
6528;BME280;64597;42.664;23.256;2023-06-14T13:12:37;94222.25;;;26.37;44.72
6528;BME280;64597;42.664;23.256;2023-06-14T13:15:03;94238.19;;;26.27;44.29
6528;BME280;64597;42.664;23.256;2023-06-14T13:17:28;94238.41;;;26.09;44.47
6528;BME280;64597;42.664;23.256;2023-06-14T13:19:54;94214.19;;;25.77;45.39